sensor_id;sensor_type;location;lat;lon;timestamp;temperature;humidity
71254;HTU21D;59019;47.638;18.966;2022-11-20T00:00:24;1.28;94.78
71254;HTU21D;59019;47.638;18.966;2022-11-20T00:02:49;1.28;93.40
71254;HTU21D;59019;47.638;18.966;2022-11-20T00:05:15;1.28;93.00
71254;HTU21D;59019;47.638;18.966;2022-11-20T00:07:40;1.31;92.92
71254;HTU21D;59019;47.638;18.966;2022-11-20T00:10:06;1.31;92.75
71254;HTU21D;59019;47.638;18.966;2022-11-20T00:12:32;1.31;92.61
71254;HTU21D;59019;47.638;18.966;2022-11-20T00:14:57;1.25;92.67
71254;HTU21D;59019;47.638;18.966;2022-11-20T00:17:23;1.27;92.66
71254;HTU21D;59019;47.638;18.966;2022-11-20T00:19:49;1.23;92.47
71254;HTU21D;59019;47.638;18.966;2022-11-20T00:22:14;1.24;92.48
71254;HTU21D;59019;47.638;18.966;2022-11-20T00:24:40;1.22;92.43
71254;HTU21D;59019;47.638;18.966;2022-11-20T00:27:05;1.19;91.91
71254;HTU21D;59019;47.638;18.966;2022-11-20T00:29:31;1.12;91.89
71254;HTU21D;59019;47.638;18.966;2022-11-20T00:31:56;1.13;91.98
71254;HTU21D;59019;47.638;18.966;2022-11-20T00:34:22;1.14;92.08
71254;HTU21D;59019;47.638;18.966;2022-11-20T00:36:49;1.11;92.46
71254;HTU21D;59019;47.638;18.966;2022-11-20T00:39:14;1.14;92.53
71254;HTU21D;59019;47.638;18.966;2022-11-20T00:41:40;1.13;92.82
71254;HTU21D;59019;47.638;18.966;2022-11-20T00:44:05;1.16;92.97
71254;HTU21D;59019;47.638;18.966;2022-11-20T00:46:31;1.11;92.89
71254;HTU21D;59019;47.638;18.966;2022-11-20T00:48:57;1.02;93.50
71254;HTU21D;59019;47.638;18.966;2022-11-20T00:51:25;1.04;93.45
71254;HTU21D;59019;47.638;18.966;2022-11-20T00:53:51;1.03;93.73
71254;HTU21D;59019;47.638;18.966;2022-11-20T00:56:18;0.98;94.07
71254;HTU21D;59019;47.638;18.966;2022-11-20T00:58:47;0.91;95.02
71254;HTU21D;59019;47.638;18.966;2022-11-20T01:01:16;0.91;95.37
71254;HTU21D;59019;47.638;18.966;2022-11-20T01:03:44;0.97;95.31
71254;HTU21D;59019;47.638;18.966;2022-11-20T01:08:38;0.92;95.19
71254;HTU21D;59019;47.638;18.966;2022-11-20T01:11:10;0.92;95.31
71254;HTU21D;59019;47.638;18.966;2022-11-20T01:13:36;0.94;95.33
71254;HTU21D;59019;47.638;18.966;2022-11-20T01:18:40;0.99;95.16
71254;HTU21D;59019;47.638;18.966;2022-11-20T01:21:08;1.01;95.15
71254;HTU21D;59019;47.638;18.966;2022-11-20T01:23:36;0.98;95.36
71254;HTU21D;59019;47.638;18.966;2022-11-20T01:26:04;1.04;95.48
71254;HTU21D;59019;47.638;18.966;2022-11-20T01:28:30;1.05;95.17
71254;HTU21D;59019;47.638;18.966;2022-11-20T01:30:56;1.05;95.41
71254;HTU21D;59019;47.638;18.966;2022-11-20T01:33:22;1.08;95.46
71254;HTU21D;59019;47.638;18.966;2022-11-20T01:35:48;1.05;95.14
71254;HTU21D;59019;47.638;18.966;2022-11-20T01:38:15;1.05;95.10
71254;HTU21D;59019;47.638;18.966;2022-11-20T01:40:40;1.08;95.16
71254;HTU21D;59019;47.638;18.966;2022-11-20T01:43:14;1.07;95.23
71254;HTU21D;59019;47.638;18.966;2022-11-20T01:48:37;1.12;96.33
71254;HTU21D;59019;47.638;18.966;2022-11-20T01:51:10;1.17;97.08
71254;HTU21D;59019;47.638;18.966;2022-11-20T01:53:37;1.20;97.24
71254;HTU21D;59019;47.638;18.966;2022-11-20T01:56:06;1.23;97.12
71254;HTU21D;59019;47.638;18.966;2022-11-20T01:58:36;1.25;97.46
71254;HTU21D;59019;47.638;18.966;2022-11-20T02:01:03;1.25;96.87
71254;HTU21D;59019;47.638;18.966;2022-11-20T02:03:29;1.28;96.63
71254;HTU21D;59019;47.638;18.966;2022-11-20T02:06:06;1.31;95.96
71254;HTU21D;59019;47.638;18.966;2022-11-20T02:08:33;1.28;95.74
71254;HTU21D;59019;47.638;18.966;2022-11-20T02:10:59;1.28;95.48
71254;HTU21D;59019;47.638;18.966;2022-11-20T02:13:25;1.29;95.36
71254;HTU21D;59019;47.638;18.966;2022-11-20T02:18:43;1.26;95.27
71254;HTU21D;59019;47.638;18.966;2022-11-20T02:24:07;1.22;95.52
71254;HTU21D;59019;47.638;18.966;2022-11-20T02:29:23;1.11;95.72
71254;HTU21D;59019;47.638;18.966;2022-11-20T02:31:50;1.08;95.81
71254;HTU21D;59019;47.638;18.966;2022-11-20T02:34:16;1.09;95.98
71254;HTU21D;59019;47.638;18.966;2022-11-20T02:36:42;1.14;96.20
71254;HTU21D;59019;47.638;18.966;2022-11-20T02:39:09;1.09;96.38
71254;HTU21D;59019;47.638;18.966;2022-11-20T02:41:37;1.11;96.44
71254;HTU21D;59019;47.638;18.966;2022-11-20T02:44:03;0.94;96.74
71254;HTU21D;59019;47.638;18.966;2022-11-20T02:46:29;0.94;97.22
71254;HTU21D;59019;47.638;18.966;2022-11-20T02:48:55;1.04;97.37
71254;HTU21D;59019;47.638;18.966;2022-11-20T02:51:21;1.14;97.20
71254;HTU21D;59019;47.638;18.966;2022-11-20T02:53:46;1.24;97.13
71254;HTU21D;59019;47.638;18.966;2022-11-20T02:56:12;1.26;96.87
71254;HTU21D;59019;47.638;18.966;2022-11-20T02:58:37;1.32;96.73
71254;HTU21D;59019;47.638;18.966;2022-11-20T03:01:03;1.35;96.55
71254;HTU21D;59019;47.638;18.966;2022-11-20T03:03:28;1.36;96.68
71254;HTU21D;59019;47.638;18.966;2022-11-20T03:05:54;1.39;96.80
71254;HTU21D;59019;47.638;18.966;2022-11-20T03:08:21;1.37;96.68
71254;HTU21D;59019;47.638;18.966;2022-11-20T03:10:46;1.41;96.81
71254;HTU21D;59019;47.638;18.966;2022-11-20T03:13:12;1.45;96.69
71254;HTU21D;59019;47.638;18.966;2022-11-20T03:15:37;1.42;96.18
71254;HTU21D;59019;47.638;18.966;2022-11-20T03:18:03;1.35;96.30
71254;HTU21D;59019;47.638;18.966;2022-11-20T03:20:29;1.37;96.29
71254;HTU21D;59019;47.638;18.966;2022-11-20T03:22:55;1.42;96.52
71254;HTU21D;59019;47.638;18.966;2022-11-20T03:25:22;1.46;96.58
71254;HTU21D;59019;47.638;18.966;2022-11-20T03:27:47;1.49;97.02
71254;HTU21D;59019;47.638;18.966;2022-11-20T03:30:13;1.51;97.88
71254;HTU21D;59019;47.638;18.966;2022-11-20T03:32:39;1.62;98.45
71254;HTU21D;59019;47.638;18.966;2022-11-20T03:35:05;1.66;98.91
71254;HTU21D;59019;47.638;18.966;2022-11-20T03:37:31;1.70;99.57
71254;HTU21D;59019;47.638;18.966;2022-11-20T03:39:57;1.75;99.55
71254;HTU21D;59019;47.638;18.966;2022-11-20T03:42:22;1.76;99.03
71254;HTU21D;59019;47.638;18.966;2022-11-20T03:45:07;1.73;98.19
71254;HTU21D;59019;47.638;18.966;2022-11-20T03:47:33;1.75;97.64
71254;HTU21D;59019;47.638;18.966;2022-11-20T03:49:58;1.73;96.94
71254;HTU21D;59019;47.638;18.966;2022-11-20T03:52:24;1.76;96.53
71254;HTU21D;59019;47.638;18.966;2022-11-20T03:54:49;1.76;96.05
71254;HTU21D;59019;47.638;18.966;2022-11-20T03:57:15;1.68;95.59
71254;HTU21D;59019;47.638;18.966;2022-11-20T03:59:40;1.64;95.43
71254;HTU21D;59019;47.638;18.966;2022-11-20T04:02:06;1.62;95.62
71254;HTU21D;59019;47.638;18.966;2022-11-20T04:04:31;1.55;95.57
71254;HTU21D;59019;47.638;18.966;2022-11-20T04:06:57;1.54;95.68
71254;HTU21D;59019;47.638;18.966;2022-11-20T04:09:22;1.55;95.91
71254;HTU21D;59019;47.638;18.966;2022-11-20T04:11:48;1.56;96.17
71254;HTU21D;59019;47.638;18.966;2022-11-20T04:14:15;1.57;96.45
71254;HTU21D;59019;47.638;18.966;2022-11-20T04:16:40;1.63;96.53
71254;HTU21D;59019;47.638;18.966;2022-11-20T04:19:10;1.63;96.45
71254;HTU21D;59019;47.638;18.966;2022-11-20T04:21:35;1.67;96.30
71254;HTU21D;59019;47.638;18.966;2022-11-20T04:24:01;1.69;96.11
71254;HTU21D;59019;47.638;18.966;2022-11-20T04:26:28;1.70;96.20
71254;HTU21D;59019;47.638;18.966;2022-11-20T04:28:54;1.71;96.17
71254;HTU21D;59019;47.638;18.966;2022-11-20T04:31:28;1.75;96.05
71254;HTU21D;59019;47.638;18.966;2022-11-20T04:33:54;1.75;96.09
71254;HTU21D;59019;47.638;18.966;2022-11-20T04:36:22;1.76;95.97
71254;HTU21D;59019;47.638;18.966;2022-11-20T04:38:52;1.69;95.72
71254;HTU21D;59019;47.638;18.966;2022-11-20T04:41:22;1.69;95.81
71254;HTU21D;59019;47.638;18.966;2022-11-20T04:43:50;1.76;96.10
71254;HTU21D;59019;47.638;18.966;2022-11-20T04:46:17;1.76;96.08
71254;HTU21D;59019;47.638;18.966;2022-11-20T04:48:43;1.75;96.11
71254;HTU21D;59019;47.638;18.966;2022-11-20T04:51:09;1.76;96.30
71254;HTU21D;59019;47.638;18.966;2022-11-20T04:53:34;1.82;96.11
71254;HTU21D;59019;47.638;18.966;2022-11-20T04:56:05;1.84;95.72
71254;HTU21D;59019;47.638;18.966;2022-11-20T04:58:31;1.82;96.26
71254;HTU21D;59019;47.638;18.966;2022-11-20T05:01:05;1.73;97.14
71254;HTU21D;59019;47.638;18.966;2022-11-20T05:03:31;1.62;97.01
71254;HTU21D;59019;47.638;18.966;2022-11-20T05:06:00;1.61;97.00
71254;HTU21D;59019;47.638;18.966;2022-11-20T05:08:26;1.67;97.19
71254;HTU21D;59019;47.638;18.966;2022-11-20T05:10:52;1.67;97.80
71254;HTU21D;59019;47.638;18.966;2022-11-20T05:13:17;1.71;98.84
71254;HTU21D;59019;47.638;18.966;2022-11-20T05:15:43;1.70;98.97
71254;HTU21D;59019;47.638;18.966;2022-11-20T05:18:08;1.56;98.61
71254;HTU21D;59019;47.638;18.966;2022-11-20T05:20:34;1.52;98.38
71254;HTU21D;59019;47.638;18.966;2022-11-20T05:23:01;1.57;98.08
71254;HTU21D;59019;47.638;18.966;2022-11-20T05:25:27;1.62;97.68
71254;HTU21D;59019;47.638;18.966;2022-11-20T05:27:53;1.64;97.32
71254;HTU21D;59019;47.638;18.966;2022-11-20T05:30:18;1.68;96.74
71254;HTU21D;59019;47.638;18.966;2022-11-20T05:32:44;1.73;96.43
71254;HTU21D;59019;47.638;18.966;2022-11-20T05:35:09;1.76;96.43
71254;HTU21D;59019;47.638;18.966;2022-11-20T05:37:35;1.76;96.32
71254;HTU21D;59019;47.638;18.966;2022-11-20T05:40:00;1.67;96.04
71254;HTU21D;59019;47.638;18.966;2022-11-20T05:42:26;1.66;96.20
71254;HTU21D;59019;47.638;18.966;2022-11-20T05:44:58;1.66;95.97
71254;HTU21D;59019;47.638;18.966;2022-11-20T05:47:25;1.66;95.96
71254;HTU21D;59019;47.638;18.966;2022-11-20T05:49:51;1.64;95.70
71254;HTU21D;59019;47.638;18.966;2022-11-20T05:52:17;1.64;95.95
71254;HTU21D;59019;47.638;18.966;2022-11-20T05:54:42;1.67;96.57
71254;HTU21D;59019;47.638;18.966;2022-11-20T05:57:08;1.72;96.80
71254;HTU21D;59019;47.638;18.966;2022-11-20T05:59:33;1.76;97.12
71254;HTU21D;59019;47.638;18.966;2022-11-20T06:01:59;1.75;96.89
71254;HTU21D;59019;47.638;18.966;2022-11-20T06:04:24;1.81;96.91
71254;HTU21D;59019;47.638;18.966;2022-11-20T06:06:50;1.87;96.86
71254;HTU21D;59019;47.638;18.966;2022-11-20T06:09:15;1.90;96.49
71254;HTU21D;59019;47.638;18.966;2022-11-20T06:11:41;1.88;97.64
71254;HTU21D;59019;47.638;18.966;2022-11-20T06:14:06;2.00;99.31
71254;HTU21D;59019;47.638;18.966;2022-11-20T06:16:32;2.11;100.56
71254;HTU21D;59019;47.638;18.966;2022-11-20T06:18:57;2.20;101.01
71254;HTU21D;59019;47.638;18.966;2022-11-20T06:21:23;2.24;100.68
71254;HTU21D;59019;47.638;18.966;2022-11-20T06:23:50;2.24;99.86
71254;HTU21D;59019;47.638;18.966;2022-11-20T06:26:21;2.28;99.30
71254;HTU21D;59019;47.638;18.966;2022-11-20T06:28:47;2.29;98.69
71254;HTU21D;59019;47.638;18.966;2022-11-20T06:31:14;2.28;97.86
71254;HTU21D;59019;47.638;18.966;2022-11-20T06:33:41;2.29;97.50
71254;HTU21D;59019;47.638;18.966;2022-11-20T06:36:07;2.37;97.34
71254;HTU21D;59019;47.638;18.966;2022-11-20T06:38:34;2.41;97.22
71254;HTU21D;59019;47.638;18.966;2022-11-20T06:40:59;2.29;96.46
71254;HTU21D;59019;47.638;18.966;2022-11-20T06:43:24;2.29;95.96
71254;HTU21D;59019;47.638;18.966;2022-11-20T06:45:55;2.34;95.53
71254;HTU21D;59019;47.638;18.966;2022-11-20T06:48:22;2.34;95.60
71254;HTU21D;59019;47.638;18.966;2022-11-20T06:50:49;2.35;95.17
71254;HTU21D;59019;47.638;18.966;2022-11-20T06:53:15;2.40;95.21
71254;HTU21D;59019;47.638;18.966;2022-11-20T06:55:45;2.44;95.27
71254;HTU21D;59019;47.638;18.966;2022-11-20T06:58:13;2.47;95.06
71254;HTU21D;59019;47.638;18.966;2022-11-20T07:00:38;2.46;94.98
71254;HTU21D;59019;47.638;18.966;2022-11-20T07:03:05;2.52;94.88
71254;HTU21D;59019;47.638;18.966;2022-11-20T07:05:31;2.59;96.45
71254;HTU21D;59019;47.638;18.966;2022-11-20T07:07:57;2.61;98.16
71254;HTU21D;59019;47.638;18.966;2022-11-20T07:10:22;2.67;98.18
71254;HTU21D;59019;47.638;18.966;2022-11-20T07:12:53;2.74;98.26
71254;HTU21D;59019;47.638;18.966;2022-11-20T07:15:20;2.79;97.58
71254;HTU21D;59019;47.638;18.966;2022-11-20T07:17:46;2.89;96.79
71254;HTU21D;59019;47.638;18.966;2022-11-20T07:20:12;2.91;95.92
71254;HTU21D;59019;47.638;18.966;2022-11-20T07:22:38;2.94;95.43
71254;HTU21D;59019;47.638;18.966;2022-11-20T07:25:04;2.96;95.14
71254;HTU21D;59019;47.638;18.966;2022-11-20T07:27:30;3.03;95.08
71254;HTU21D;59019;47.638;18.966;2022-11-20T07:29:55;3.02;94.57
71254;HTU21D;59019;47.638;18.966;2022-11-20T07:32:21;3.05;94.21
71254;HTU21D;59019;47.638;18.966;2022-11-20T07:34:47;3.05;93.95
71254;HTU21D;59019;47.638;18.966;2022-11-20T07:37:13;3.01;93.55
71254;HTU21D;59019;47.638;18.966;2022-11-20T07:39:38;3.08;93.62
71254;HTU21D;59019;47.638;18.966;2022-11-20T07:42:04;3.02;93.23
71254;HTU21D;59019;47.638;18.966;2022-11-20T07:44:30;3.05;93.46
71254;HTU21D;59019;47.638;18.966;2022-11-20T07:46:56;3.14;93.51
71254;HTU21D;59019;47.638;18.966;2022-11-20T07:49:21;3.21;93.11
71254;HTU21D;59019;47.638;18.966;2022-11-20T07:51:50;3.31;93.25
71254;HTU21D;59019;47.638;18.966;2022-11-20T07:54:15;3.40;93.54
71254;HTU21D;59019;47.638;18.966;2022-11-20T07:56:41;3.45;93.60
71254;HTU21D;59019;47.638;18.966;2022-11-20T07:59:07;3.56;93.79
71254;HTU21D;59019;47.638;18.966;2022-11-20T08:01:32;3.63;94.70
71254;HTU21D;59019;47.638;18.966;2022-11-20T08:03:58;3.71;95.87
71254;HTU21D;59019;47.638;18.966;2022-11-20T08:06:23;3.79;97.22
71254;HTU21D;59019;47.638;18.966;2022-11-20T08:08:50;3.86;96.01
71254;HTU21D;59019;47.638;18.966;2022-11-20T08:11:16;3.94;95.29
71254;HTU21D;59019;47.638;18.966;2022-11-20T08:14:00;4.04;94.45
71254;HTU21D;59019;47.638;18.966;2022-11-20T08:16:47;4.09;93.53
71254;HTU21D;59019;47.638;18.966;2022-11-20T08:19:15;4.19;92.69
71254;HTU21D;59019;47.638;18.966;2022-11-20T08:21:41;4.23;91.76
71254;HTU21D;59019;47.638;18.966;2022-11-20T08:24:08;4.23;91.02
71254;HTU21D;59019;47.638;18.966;2022-11-20T08:26:36;4.29;90.93
71254;HTU21D;59019;47.638;18.966;2022-11-20T08:29:03;4.27;90.75
71254;HTU21D;59019;47.638;18.966;2022-11-20T08:31:29;4.27;90.32
71254;HTU21D;59019;47.638;18.966;2022-11-20T08:33:55;4.35;90.56
71254;HTU21D;59019;47.638;18.966;2022-11-20T08:36:21;4.43;90.76
71254;HTU21D;59019;47.638;18.966;2022-11-20T08:38:52;4.54;90.47
71254;HTU21D;59019;47.638;18.966;2022-11-20T08:41:18;4.68;90.07
71254;HTU21D;59019;47.638;18.966;2022-11-20T08:44:01;4.72;89.56
71254;HTU21D;59019;47.638;18.966;2022-11-20T08:46:38;4.79;89.41
71254;HTU21D;59019;47.638;18.966;2022-11-20T08:49:10;4.86;89.01
71254;HTU21D;59019;47.638;18.966;2022-11-20T08:51:36;4.91;88.74
71254;HTU21D;59019;47.638;18.966;2022-11-20T08:54:02;4.78;90.24
71254;HTU21D;59019;47.638;18.966;2022-11-20T08:56:28;4.87;90.88
71254;HTU21D;59019;47.638;18.966;2022-11-20T08:58:54;4.94;91.98
71254;HTU21D;59019;47.638;18.966;2022-11-20T09:01:20;5.04;92.31
71254;HTU21D;59019;47.638;18.966;2022-11-20T09:03:46;5.08;91.23
71254;HTU21D;59019;47.638;18.966;2022-11-20T09:06:12;5.06;89.92
71254;HTU21D;59019;47.638;18.966;2022-11-20T09:08:38;5.08;88.95
71254;HTU21D;59019;47.638;18.966;2022-11-20T09:11:04;5.02;88.72
71254;HTU21D;59019;47.638;18.966;2022-11-20T09:13:32;4.96;88.86
71254;HTU21D;59019;47.638;18.966;2022-11-20T09:16:08;4.81;88.70
71254;HTU21D;59019;47.638;18.966;2022-11-20T09:18:35;4.89;88.89
71254;HTU21D;59019;47.638;18.966;2022-11-20T09:21:10;4.94;88.79
71254;HTU21D;59019;47.638;18.966;2022-11-20T09:23:37;5.02;88.82
71254;HTU21D;59019;47.638;18.966;2022-11-20T09:26:09;5.15;89.08
71254;HTU21D;59019;47.638;18.966;2022-11-20T09:28:35;5.15;88.51
71254;HTU21D;59019;47.638;18.966;2022-11-20T09:31:03;5.09;88.47
71254;HTU21D;59019;47.638;18.966;2022-11-20T09:33:29;5.09;88.51
71254;HTU21D;59019;47.638;18.966;2022-11-20T09:35:55;5.17;88.99
71254;HTU21D;59019;47.638;18.966;2022-11-20T09:38:20;5.21;88.51
71254;HTU21D;59019;47.638;18.966;2022-11-20T09:40:57;5.11;87.97
71254;HTU21D;59019;47.638;18.966;2022-11-20T09:43:48;5.17;87.74
71254;HTU21D;59019;47.638;18.966;2022-11-20T09:46:17;5.37;87.17
71254;HTU21D;59019;47.638;18.966;2022-11-20T09:55:03;5.28;87.41
71254;HTU21D;59019;47.638;18.966;2022-11-20T09:57:36;5.37;86.74
71254;HTU21D;59019;47.638;18.966;2022-11-20T10:00:05;5.38;86.15
71254;HTU21D;59019;47.638;18.966;2022-11-20T10:05:18;5.35;85.61
71254;HTU21D;59019;47.638;18.966;2022-11-20T10:10:16;5.82;85.87
71254;HTU21D;59019;47.638;18.966;2022-11-20T10:13:06;5.41;86.14
71254;HTU21D;59019;47.638;18.966;2022-11-20T10:16:03;5.53;86.22
71254;HTU21D;59019;47.638;18.966;2022-11-20T10:27:27;6.11;84.52
71254;HTU21D;59019;47.638;18.966;2022-11-20T10:30:16;6.08;83.83
71254;HTU21D;59019;47.638;18.966;2022-11-20T10:32:54;6.28;84.16
71254;HTU21D;59019;47.638;18.966;2022-11-20T10:37:55;6.86;83.11
71254;HTU21D;59019;47.638;18.966;2022-11-20T10:45:55;6.80;82.75
71254;HTU21D;59019;47.638;18.966;2022-11-20T10:48:23;6.69;82.62
71254;HTU21D;59019;47.638;18.966;2022-11-20T11:01:25;6.30;82.83
71254;HTU21D;59019;47.638;18.966;2022-11-20T11:03:52;6.30;83.10
71254;HTU21D;59019;47.638;18.966;2022-11-20T11:06:40;6.21;83.57
71254;HTU21D;59019;47.638;18.966;2022-11-20T11:09:17;6.04;83.49
71254;HTU21D;59019;47.638;18.966;2022-11-20T11:11:44;5.83;83.48
71254;HTU21D;59019;47.638;18.966;2022-11-20T11:14:15;5.74;84.60
71254;HTU21D;59019;47.638;18.966;2022-11-20T11:16:55;5.48;85.05
71254;HTU21D;59019;47.638;18.966;2022-11-20T11:19:21;5.59;85.79
71254;HTU21D;59019;47.638;18.966;2022-11-20T11:21:49;5.60;85.96
71254;HTU21D;59019;47.638;18.966;2022-11-20T11:24:23;5.43;85.96
71254;HTU21D;59019;47.638;18.966;2022-11-20T11:26:56;5.49;86.00
71254;HTU21D;59019;47.638;18.966;2022-11-20T11:29:24;5.63;86.48
71254;HTU21D;59019;47.638;18.966;2022-11-20T11:32:03;5.71;85.82
71254;HTU21D;59019;47.638;18.966;2022-11-20T11:34:29;5.76;86.29
71254;HTU21D;59019;47.638;18.966;2022-11-20T11:36:58;5.70;85.81
71254;HTU21D;59019;47.638;18.966;2022-11-20T11:39:27;5.83;85.97
71254;HTU21D;59019;47.638;18.966;2022-11-20T11:41:54;5.91;86.25
71254;HTU21D;59019;47.638;18.966;2022-11-20T11:44:27;5.95;86.14
71254;HTU21D;59019;47.638;18.966;2022-11-20T11:47:25;5.98;86.39
71254;HTU21D;59019;47.638;18.966;2022-11-20T11:50:28;6.25;85.58
71254;HTU21D;59019;47.638;18.966;2022-11-20T11:53:12;6.37;85.55
71254;HTU21D;59019;47.638;18.966;2022-11-20T11:55:58;6.68;85.29
71254;HTU21D;59019;47.638;18.966;2022-11-20T12:01:42;6.44;84.49
71254;HTU21D;59019;47.638;18.966;2022-11-20T12:04:04;6.22;84.91
71254;HTU21D;59019;47.638;18.966;2022-11-20T12:06:34;5.90;85.35
71254;HTU21D;59019;47.638;18.966;2022-11-20T12:09:09;5.79;86.14
71254;HTU21D;59019;47.638;18.966;2022-11-20T12:11:54;5.89;86.48
71254;HTU21D;59019;47.638;18.966;2022-11-20T12:14:40;5.62;86.85
71254;HTU21D;59019;47.638;18.966;2022-11-20T12:17:09;5.66;87.48
71254;HTU21D;59019;47.638;18.966;2022-11-20T12:19:36;5.43;87.89
71254;HTU21D;59019;47.638;18.966;2022-11-20T12:30:04;5.61;87.67
71254;HTU21D;59019;47.638;18.966;2022-11-20T12:58:26;5.84;87.77
71254;HTU21D;59019;47.638;18.966;2022-11-20T13:04:00;5.90;87.67
71254;HTU21D;59019;47.638;18.966;2022-11-20T13:06:32;5.98;87.87
71254;HTU21D;59019;47.638;18.966;2022-11-20T13:08:58;6.08;88.00
71254;HTU21D;59019;47.638;18.966;2022-11-20T13:11:44;6.01;87.83
71254;HTU21D;59019;47.638;18.966;2022-11-20T13:17:17;6.11;86.32
71254;HTU21D;59019;47.638;18.966;2022-11-20T13:19:53;6.19;86.70
71254;HTU21D;59019;47.638;18.966;2022-11-20T13:22:43;6.00;87.51
71254;HTU21D;59019;47.638;18.966;2022-11-20T13:25:10;5.78;87.51
71254;HTU21D;59019;47.638;18.966;2022-11-20T13:27:35;5.72;87.84
71254;HTU21D;59019;47.638;18.966;2022-11-20T13:30:22;5.94;87.54
71254;HTU21D;59019;47.638;18.966;2022-11-20T13:35:29;5.95;87.32
71254;HTU21D;59019;47.638;18.966;2022-11-20T13:38:09;5.99;86.72
71254;HTU21D;59019;47.638;18.966;2022-11-20T13:40:53;5.75;87.44
71254;HTU21D;59019;47.638;18.966;2022-11-20T13:43:35;5.61;88.28
71254;HTU21D;59019;47.638;18.966;2022-11-20T13:46:07;5.68;88.18
71254;HTU21D;59019;47.638;18.966;2022-11-20T13:48:44;5.65;87.97
71254;HTU21D;59019;47.638;18.966;2022-11-20T13:56:44;5.68;88.18
71254;HTU21D;59019;47.638;18.966;2022-11-20T14:01:54;5.75;88.01
71254;HTU21D;59019;47.638;18.966;2022-11-20T14:04:27;5.71;88.02
71254;HTU21D;59019;47.638;18.966;2022-11-20T14:06:54;5.70;88.11
71254;HTU21D;59019;47.638;18.966;2022-11-20T14:11:52;5.31;89.59
71254;HTU21D;59019;47.638;18.966;2022-11-20T14:14:20;5.39;89.26
71254;HTU21D;59019;47.638;18.966;2022-11-20T14:16:47;5.20;89.26
71254;HTU21D;59019;47.638;18.966;2022-11-20T14:19:29;5.12;90.21
71254;HTU21D;59019;47.638;18.966;2022-11-20T14:24:35;4.91;90.98
71254;HTU21D;59019;47.638;18.966;2022-11-20T14:27:01;4.82;91.59
71254;HTU21D;59019;47.638;18.966;2022-11-20T14:29:36;4.81;91.59
71254;HTU21D;59019;47.638;18.966;2022-11-20T14:32:03;4.74;91.85
71254;HTU21D;59019;47.638;18.966;2022-11-20T14:34:31;4.73;93.11
71254;HTU21D;59019;47.638;18.966;2022-11-20T14:37:02;4.66;92.75
71254;HTU21D;59019;47.638;18.966;2022-11-20T14:39:36;4.63;93.56
71254;HTU21D;59019;47.638;18.966;2022-11-20T14:42:10;4.66;94.07
71254;HTU21D;59019;47.638;18.966;2022-11-20T14:44:39;4.77;94.80
71254;HTU21D;59019;47.638;18.966;2022-11-20T14:47:06;4.79;93.84
71254;HTU21D;59019;47.638;18.966;2022-11-20T14:49:33;4.76;92.41
71254;HTU21D;59019;47.638;18.966;2022-11-20T14:57:22;4.05;94.26
71254;HTU21D;59019;47.638;18.966;2022-11-20T14:59:48;4.05;94.13
71254;HTU21D;59019;47.638;18.966;2022-11-20T15:02:14;3.90;94.52
71254;HTU21D;59019;47.638;18.966;2022-11-20T15:04:50;3.80;95.14
71254;HTU21D;59019;47.638;18.966;2022-11-20T15:07:34;3.75;95.26
71254;HTU21D;59019;47.638;18.966;2022-11-20T15:12:38;3.70;95.34
71254;HTU21D;59019;47.638;18.966;2022-11-20T15:15:05;3.76;95.56
71254;HTU21D;59019;47.638;18.966;2022-11-20T15:17:32;3.68;95.48
71254;HTU21D;59019;47.638;18.966;2022-11-20T15:19:59;3.65;95.22
71254;HTU21D;59019;47.638;18.966;2022-11-20T15:22:27;3.71;95.43
71254;HTU21D;59019;47.638;18.966;2022-11-20T15:24:52;3.53;95.88
71254;HTU21D;59019;47.638;18.966;2022-11-20T15:27:18;3.54;96.02
71254;HTU21D;59019;47.638;18.966;2022-11-20T15:29:43;3.60;95.97
71254;HTU21D;59019;47.638;18.966;2022-11-20T15:32:09;3.57;95.81
71254;HTU21D;59019;47.638;18.966;2022-11-20T15:34:35;3.56;95.48
71254;HTU21D;59019;47.638;18.966;2022-11-20T15:37:00;3.42;96.18
71254;HTU21D;59019;47.638;18.966;2022-11-20T15:39:25;3.40;96.78
71254;HTU21D;59019;47.638;18.966;2022-11-20T15:41:51;3.40;96.87
71254;HTU21D;59019;47.638;18.966;2022-11-20T15:44:16;3.41;96.95
71254;HTU21D;59019;47.638;18.966;2022-11-20T15:46:42;3.42;96.61
71254;HTU21D;59019;47.638;18.966;2022-11-20T15:49:14;3.41;97.05
71254;HTU21D;59019;47.638;18.966;2022-11-20T15:51:46;3.45;96.53
71254;HTU21D;59019;47.638;18.966;2022-11-20T15:54:20;3.49;96.89
71254;HTU21D;59019;47.638;18.966;2022-11-20T15:56:50;3.47;97.63
71254;HTU21D;59019;47.638;18.966;2022-11-20T15:59:18;3.41;97.83
71254;HTU21D;59019;47.638;18.966;2022-11-20T16:01:43;3.48;97.89
71254;HTU21D;59019;47.638;18.966;2022-11-20T16:04:16;3.52;97.87
71254;HTU21D;59019;47.638;18.966;2022-11-20T16:06:41;3.49;97.87
71254;HTU21D;59019;47.638;18.966;2022-11-20T16:09:07;3.48;97.06
71254;HTU21D;59019;47.638;18.966;2022-11-20T16:11:33;3.47;97.39
71254;HTU21D;59019;47.638;18.966;2022-11-20T16:14:02;3.42;97.26
71254;HTU21D;59019;47.638;18.966;2022-11-20T16:16:46;3.44;97.13
71254;HTU21D;59019;47.638;18.966;2022-11-20T16:19:12;3.42;97.24
71254;HTU21D;59019;47.638;18.966;2022-11-20T16:21:39;3.32;97.20
71254;HTU21D;59019;47.638;18.966;2022-11-20T16:24:08;3.29;97.32
71254;HTU21D;59019;47.638;18.966;2022-11-20T16:26:34;3.19;97.90
71254;HTU21D;59019;47.638;18.966;2022-11-20T16:29:01;3.15;98.16
71254;HTU21D;59019;47.638;18.966;2022-11-20T16:31:28;3.13;98.06
71254;HTU21D;59019;47.638;18.966;2022-11-20T16:33:55;3.19;98.14
71254;HTU21D;59019;47.638;18.966;2022-11-20T16:36:22;3.29;97.74
71254;HTU21D;59019;47.638;18.966;2022-11-20T16:38:52;3.35;96.97
71254;HTU21D;59019;47.638;18.966;2022-11-20T16:41:18;3.28;96.75
71254;HTU21D;59019;47.638;18.966;2022-11-20T16:43:46;3.19;97.15
71254;HTU21D;59019;47.638;18.966;2022-11-20T16:46:16;3.28;96.70
71254;HTU21D;59019;47.638;18.966;2022-11-20T16:48:42;3.27;96.39
71254;HTU21D;59019;47.638;18.966;2022-11-20T16:51:09;3.20;95.81
71254;HTU21D;59019;47.638;18.966;2022-11-20T16:53:37;3.19;95.39
71254;HTU21D;59019;47.638;18.966;2022-11-20T16:56:15;3.11;94.72
71254;HTU21D;59019;47.638;18.966;2022-11-20T16:58:42;2.87;95.33
71254;HTU21D;59019;47.638;18.966;2022-11-20T17:01:09;2.76;96.58
71254;HTU21D;59019;47.638;18.966;2022-11-20T17:03:37;2.55;97.63
71254;HTU21D;59019;47.638;18.966;2022-11-20T17:06:14;2.58;97.26
71254;HTU21D;59019;47.638;18.966;2022-11-20T17:08:40;2.59;96.88
71254;HTU21D;59019;47.638;18.966;2022-11-20T17:11:10;2.29;97.02
71254;HTU21D;59019;47.638;18.966;2022-11-20T17:13:36;2.01;99.82
71254;HTU21D;59019;47.638;18.966;2022-11-20T17:16:07;1.96;101.58
71254;HTU21D;59019;47.638;18.966;2022-11-20T17:18:33;1.98;101.52
71254;HTU21D;59019;47.638;18.966;2022-11-20T17:20:59;2.08;101.17
71254;HTU21D;59019;47.638;18.966;2022-11-20T17:23:33;2.12;100.24
71254;HTU21D;59019;47.638;18.966;2022-11-20T17:26:11;2.08;99.43